Time;durP1;ratioP1;P1;durP2;ratioP2;P2;SDS_P1;SDS_P2;PMS_P1;PMS_P2;Temp;Humidity;BMP_temperature;BMP_pressure;BME280_temperature;BME280_humidity;BME280_pressure;Samples;Min_cycle;Max_cycle;Signal;HPM_P1;HPM_P2
2023/10/10 00:00:23;;;;;;;3.92;2.70;;;;;;;;;;6333596;27;20305;-72
2023/10/10 00:03:31;;;;;;;5.18;3.35;;;;;;;;;;6333649;28;20309;-69
2023/10/10 00:06:38;;;;;;;10.43;3.53;;;;;;;;;;6333854;28;20489;-70
2023/10/10 00:09:43;;;;;;;5.13;2.70;;;;;;;;;;6333329;27;20289;-70
2023/10/10 00:12:48;;;;;;;2.63;2.35;;;;;;;;;;6333010;28;20610;-70
2023/10/10 00:15:56;;;;;;;7.85;2.75;;;;;;;;;;6332422;28;20297;-70
2023/10/10 00:19:11;;;;;;;10.35;3.42;;;;;;;;;;6331713;28;20301;-70
2023/10/10 00:22:17;;;;;;;5.88;3.65;;;;;;;;;;6333725;28;20317;-70
2023/10/10 00:25:24;;;;;;;6.32;3.05;;;;;;;;;;6333072;28;20297;-70
2023/10/10 00:28:33;;;;;;;3.70;2.50;;;;;;;;;;6333149;28;20298;-71
2023/10/10 00:31:43;;;;;;;2.70;2.30;;;;;;;;;;6333345;28;20289;-70
2023/10/10 00:34:47;;;;;;;2.65;2.30;;;;;;;;;;6333370;27;20289;-69
2023/10/10 00:37:52;;;;;;;2.50;2.40;;;;;;;;;;6332735;28;20306;-70
2023/10/10 00:40:58;;;;;;;8.35;2.50;;;;;;;;;;6333065;28;20294;-70
2023/10/10 00:44:04;;;;;;;3.65;2.65;;;;;;;;;;6332564;28;20297;-69
2023/10/10 00:47:13;;;;;;;6.55;2.38;;;;;;;;;;6332905;28;20313;-69
2023/10/10 00:50:18;;;;;;;3.38;2.30;;;;;;;;;;6332513;28;20865;-70
2023/10/10 00:53:24;;;;;;;6.68;2.28;;;;;;;;;;6331088;28;20298;-69
2023/10/10 00:56:30;;;;;;;3.47;2.20;;;;;;;;;;6332270;28;20305;-70
2023/10/10 00:59:42;;;;;;;9.63;2.10;;;;;;;;;;6332236;28;20321;-70
2023/10/10 01:02:51;;;;;;;7.40;2.47;;;;;;;;;;6331867;28;20297;-70
2023/10/10 01:05:58;;;;;;;2.47;2.28;;;;;;;;;;6332604;28;20565;-71
2023/10/10 01:09:20;;;;;;;4.20;2.05;;;;;;;;;;6310888;28;20334;-70
2023/10/10 01:12:25;;;;;;;2.88;2.20;;;;;;;;;;6332277;28;20294;-69
2023/10/10 01:15:34;;;;;;;6.22;2.10;;;;;;;;;;6329684;28;20297;-70
2023/10/10 01:18:51;;;;;;;3.42;1.98;;;;;;;;;;6332201;28;20290;-70
2023/10/10 01:21:57;;;;;;;2.72;2.00;;;;;;;;;;6332077;28;20274;-70
2023/10/10 01:25:05;;;;;;;15.18;2.42;;;;;;;;;;6331478;28;20298;-71
2023/10/10 01:28:27;;;;;;;7.53;3.05;;;;;;;;;;6332064;27;20317;-70
2023/10/10 01:31:30;;;;;;;2.05;1.90;;;;;;;;;;6330979;28;20317;-69
2023/10/10 01:34:43;;;;;;;2.07;1.93;;;;;;;;;;6331952;28;20294;-70
2023/10/10 01:37:54;;;;;;;3.45;1.88;;;;;;;;;;6331624;28;20494;-69
2023/10/10 01:41:04;;;;;;;1.58;1.58;;;;;;;;;;6332132;28;20317;-70
2023/10/10 01:44:11;;;;;;;1.50;1.50;;;;;;;;;;6331491;28;20293;-70
2023/10/10 01:47:26;;;;;;;1.98;1.80;;;;;;;;;;6330476;28;20306;-72
2023/10/10 01:50:31;;;;;;;2.10;1.70;;;;;;;;;;6331201;28;20336;-70
2023/10/10 01:53:40;;;;;;;1.95;1.85;;;;;;;;;;6331687;28;20305;-70
2023/10/10 01:56:44;;;;;;;2.03;1.77;;;;;;;;;;6330177;28;20298;-70
2023/10/10 01:59:48;;;;;;;1.80;1.80;;;;;;;;;;6330002;28;20289;-71
2023/10/10 02:02:53;;;;;;;1.77;1.67;;;;;;;;;;6329697;28;20285;-69
2023/10/10 02:05:59;;;;;;;1.58;1.58;;;;;;;;;;6330790;28;20554;-70
2023/10/10 02:09:12;;;;;;;1.50;1.40;;;;;;;;;;6333227;28;20313;-70
2023/10/10 02:12:16;;;;;;;1.55;1.55;;;;;;;;;;6335635;28;20305;-70
2023/10/10 02:15:26;;;;;;;1.50;1.50;;;;;;;;;;6332957;28;20301;-69
2023/10/10 02:18:39;;;;;;;1.92;1.80;;;;;;;;;;6336414;28;20305;-70
2023/10/10 02:21:47;;;;;;;1.92;1.70;;;;;;;;;;6334667;28;20551;-70
2023/10/10 02:25:31;;;;;;;1.45;1.38;;;;;;;;;;6335332;28;20543;-70
2023/10/10 02:28:21;;;;;;;2.13;2.00;;;;;;;;;;6334427;28;20285;-70
2023/10/10 02:31:28;;;;;;;1.98;1.88;;;;;;;;;;6336127;28;20289;-70
2023/10/10 02:34:34;;;;;;;1.85;1.85;;;;;;;;;;6334538;28;20294;-69
2023/10/10 02:37:47;;;;;;;1.70;1.70;;;;;;;;;;6335584;28;20305;-72
2023/10/10 02:40:56;;;;;;;2.05;1.88;;;;;;;;;;6368332;27;20305;-70
2023/10/10 02:44:05;;;;;;;1.70;1.70;;;;;;;;;;6334008;28;20484;-69
2023/10/10 02:47:12;;;;;;;1.77;1.77;;;;;;;;;;6335936;28;20305;-70
2023/10/10 02:50:39;;;;;;;1.63;1.60;;;;;;;;;;6367817;27;20325;-70
2023/10/10 02:53:46;;;;;;;1.90;1.67;;;;;;;;;;6333739;28;20322;-70
2023/10/10 02:56:56;;;;;;;1.50;1.40;;;;;;;;;;6333953;28;20310;-71
2023/10/10 03:03:25;;;;;;;1.55;1.55;;;;;;;;;;6325496;28;20297;-70
2023/10/10 03:06:29;;;;;;;3.20;1.80;;;;;;;;;;6335448;28;20290;-70
2023/10/10 03:09:42;;;;;;;1.60;1.60;;;;;;;;;;6333075;28;20297;-70
2023/10/10 03:12:49;;;;;;;1.73;1.63;;;;;;;;;;6309777;28;20290;-71
2023/10/10 03:15:55;;;;;;;1.67;1.65;;;;;;;;;;6308358;28;20270;-70
2023/10/10 03:19:25;;;;;;;1.40;1.40;;;;;;;;;;6313616;27;20356;-72
2023/10/10 03:22:52;;;;;;;1.48;1.48;;;;;;;;;;6333236;28;20417;-69
2023/10/10 03:26:04;;;;;;;1.45;1.35;;;;;;;;;;6333522;28;20305;-70
2023/10/10 03:29:11;;;;;;;1.42;1.42;;;;;;;;;;6332817;28;20305;-69
2023/10/10 03:32:30;;;;;;;1.42;1.42;;;;;;;;;;6334219;28;20297;-69
2023/10/10 03:35:52;;;;;;;3.88;1.50;;;;;;;;;;6334499;28;20483;-69
2023/10/10 03:39:16;;;;;;;1.50;1.40;;;;;;;;;;6332646;28;20260;-69
2023/10/10 05:23:48;;;;;;;1.60;1.60;;;;;;;;;;6331731;28;20322;-69
2023/10/10 05:26:56;;;;;;;3.40;1.70;;;;;;;;;;6332010;28;20285;-69
2023/10/10 05:30:00;;;;;;;2.30;1.80;;;;;;;;;;6330918;28;20293;-69
2023/10/10 05:33:05;;;;;;;2.13;2.13;;;;;;;;;;6331572;28;20282;-69
2023/10/10 05:36:08;;;;;;;5.32;1.90;;;;;;;;;;6331628;28;20298;-69
2023/10/10 05:39:17;;;;;;;2.95;1.95;;;;;;;;;;6331487;28;20293;-70
2023/10/10 05:42:26;;;;;;;2.10;1.90;;;;;;;;;;6331048;28;20290;-69
2023/10/10 05:45:30;;;;;;;4.72;2.03;;;;;;;;;;6331345;28;20297;-70
2023/10/10 05:48:35;;;;;;;2.55;2.30;;;;;;;;;;6331231;28;20289;-71
2023/10/10 05:51:40;;;;;;;6.68;2.42;;;;;;;;;;6331306;28;20302;-69
2023/10/10 05:54:43;;;;;;;7.63;2.28;;;;;;;;;;6363174;27;20457;-70
2023/10/10 05:57:49;;;;;;;2.28;2.00;;;;;;;;;;6330967;28;20289;-70
2023/10/10 06:00:54;;;;;;;2.08;1.90;;;;;;;;;;6330387;28;20310;-71
2023/10/10 06:03:58;;;;;;;2.10;1.90;;;;;;;;;;6330561;28;20474;-70
2023/10/10 06:07:03;;;;;;;5.57;2.10;;;;;;;;;;6331085;27;20245;-70
2023/10/10 06:10:14;;;;;;;2.33;2.08;;;;;;;;;;6331209;27;20298;-72
2023/10/10 06:13:19;;;;;;;2.50;1.95;;;;;;;;;;6328851;28;20281;-70
2023/10/10 06:16:23;;;;;;;2.13;1.98;;;;;;;;;;6331067;28;20297;-70
2023/10/10 06:19:28;;;;;;;3.65;1.95;;;;;;;;;;6330342;28;20337;-70
2023/10/10 06:22:32;;;;;;;1.65;1.58;;;;;;;;;;6330604;28;20301;-71
2023/10/10 06:25:37;;;;;;;4.78;1.88;;;;;;;;;;6330981;28;20487;-69
2023/10/10 06:28:50;;;;;;;2.30;2.20;;;;;;;;;;6330414;28;20294;-69
2023/10/10 06:31:56;;;;;;;2.50;1.88;;;;;;;;;;6330792;28;20528;-70
2023/10/10 06:35:25;;;;;;;2.40;2.05;;;;;;;;;;6328958;28;20313;-69
2023/10/10 06:38:29;;;;;;;2.95;1.80;;;;;;;;;;6330503;27;20317;-69
2023/10/10 06:41:36;;;;;;;4.57;1.80;;;;;;;;;;6330788;28;20297;-71
2023/10/10 06:44:46;;;;;;;4.85;1.95;;;;;;;;;;6330364;27;20579;-69
2023/10/10 06:47:51;;;;;;;2.67;1.83;;;;;;;;;;6330455;27;20599;-70
2023/10/10 06:50:56;;;;;;;3.60;2.10;;;;;;;;;;6331203;28;20309;-70
2023/10/10 06:54:03;;;;;;;3.85;2.30;;;;;;;;;;6330666;27;20306;-69
2023/10/10 06:57:16;;;;;;;2.80;2.00;;;;;;;;;;6335105;28;20369;-69
2023/10/10 07:00:27;;;;;;;3.10;2.00;;;;;;;;;;6334238;28;20302;-68
2023/10/10 07:03:39;;;;;;;3.40;2.13;;;;;;;;;;6334694;28;20300;-71
2023/10/10 07:06:45;;;;;;;2.30;2.20;;;;;;;;;;6335204;28;20389;-71
2023/10/10 07:09:57;;;;;;;3.28;2.85;;;;;;;;;;6334313;27;20456;-74
2023/10/10 07:13:02;;;;;;;2.50;2.30;;;;;;;;;;6332846;28;20285;-70
2023/10/10 07:16:08;;;;;;;5.07;1.98;;;;;;;;;;6335308;28;20282;-70
2023/10/10 07:19:22;;;;;;;2.33;2.20;;;;;;;;;;6334483;28;20301;-70
2023/10/10 07:22:24;;;;;;;3.22;2.03;;;;;;;;;;6334524;28;20305;-69
2023/10/10 07:25:43;;;;;;;2.50;1.92;;;;;;;;;;6335047;28;20437;-71
2023/10/10 07:28:52;;;;;;;2.47;2.38;;;;;;;;;;6334485;28;20317;-70
2023/10/10 07:32:07;;;;;;;2.83;2.10;;;;;;;;;;6335208;28;20333;-69
2023/10/10 07:35:15;;;;;;;2.10;2.00;;;;;;;;;;6335044;28;20299;-70
2023/10/10 07:38:23;;;;;;;2.15;2.15;;;;;;;;;;6334450;27;20301;-69
2023/10/10 07:41:27;;;;;;;2.10;2.00;;;;;;;;;;6334517;28;20301;-69
2023/10/10 07:44:32;;;;;;;2.25;1.77;;;;;;;;;;6334032;27;20325;-69
2023/10/10 07:48:37;;;;;;;6.40;1.80;;;;;;;;;;6334332;28;20629;-70
2023/10/10 07:51:06;;;;;;;2.00;2.00;;;;;;;;;;6334252;28;20309;-69
2023/10/10 07:54:12;;;;;;;5.85;2.22;;;;;;;;;;6334130;28;20321;-69
2023/10/10 07:57:22;;;;;;;3.50;1.92;;;;;;;;;;6334048;28;20309;-70
2023/10/10 08:00:28;;;;;;;2.13;2.10;;;;;;;;;;6334267;28;20325;-69
2023/10/10 08:03:33;;;;;;;6.57;2.13;;;;;;;;;;6333774;28;20294;-68
2023/10/10 08:06:38;;;;;;;5.45;2.00;;;;;;;;;;6333815;28;20303;-71
2023/10/10 08:09:42;;;;;;;2.08;1.73;;;;;;;;;;6333313;27;20377;-70
2023/10/10 08:12:46;;;;;;;1.90;1.80;;;;;;;;;;6333461;28;20570;-69
2023/10/10 08:15:51;;;;;;;2.67;1.88;;;;;;;;;;6331095;28;20301;-70
2023/10/10 08:19:04;;;;;;;7.70;2.20;;;;;;;;;;6333031;28;20309;-69
2023/10/10 08:22:12;;;;;;;2.55;2.00;;;;;;;;;;6333260;28;20282;-70
2023/10/10 08:25:16;;;;;;;4.63;2.13;;;;;;;;;;6332511;28;20575;-71
2023/10/10 08:28:21;;;;;;;2.25;2.20;;;;;;;;;;6332874;28;20293;-69
2023/10/10 08:31:24;;;;;;;5.93;2.08;;;;;;;;;;6333099;28;20293;-70
2023/10/10 08:34:31;;;;;;;2.13;1.95;;;;;;;;;;6333077;28;20297;-71
2023/10/10 08:37:35;;;;;;;5.32;2.15;;;;;;;;;;6332902;28;20289;-70
2023/10/10 08:40:40;;;;;;;1.88;1.60;;;;;;;;;;6333026;28;20293;-70
2023/10/10 08:43:45;;;;;;;5.97;1.90;;;;;;;;;;6332594;28;20289;-69
2023/10/10 08:46:49;;;;;;;1.52;1.48;;;;;;;;;;6333026;28;20301;-72
2023/10/10 08:49:57;;;;;;;2.22;1.30;;;;;;;;;;6332419;28;20478;-70
2023/10/10 08:53:02;;;;;;;1.27;1.27;;;;;;;;;;6332569;28;20317;-71
2023/10/10 08:56:07;;;;;;;2.95;1.40;;;;;;;;;;6332866;28;20293;-69
2023/10/10 08:59:11;;;;;;;2.42;1.35;;;;;;;;;;6332326;28;20286;-70
2023/10/10 09:02:16;;;;;;;4.13;1.30;;;;;;;;;;6332091;28;20629;-70
2023/10/10 09:05:23;;;;;;;1.42;1.42;;;;;;;;;;6332068;28;20302;-72
2023/10/10 09:08:33;;;;;;;1.88;1.20;;;;;;;;;;6331762;28;20329;-70
2023/10/10 09:11:38;;;;;;;2.45;1.08;;;;;;;;;;6332515;28;20284;-71
2023/10/10 09:14:43;;;;;;;1.15;1.15;;;;;;;;;;6330008;28;20289;-69
2023/10/10 09:17:48;;;;;;;2.63;1.20;;;;;;;;;;6331036;28;20281;-70
2023/10/10 09:21:17;;;;;;;1.58;1.15;;;;;;;;;;6332123;28;20325;-70
2023/10/10 09:24:28;;;;;;;2.58;1.25;;;;;;;;;;6331462;28;20321;-69
2023/10/10 09:27:36;;;;;;;2.42;1.10;;;;;;;;;;6331252;27;20357;-70
2023/10/10 09:30:45;;;;;;;1.70;1.30;;;;;;;;;;6332205;28;20313;-70
2023/10/10 09:33:54;;;;;;;1.10;1.10;;;;;;;;;;6330408;28;20324;-71
2023/10/10 09:36:59;;;;;;;1.10;1.10;;;;;;;;;;6331648;28;20238;-70
2023/10/10 09:40:06;;;;;;;1.15;1.15;;;;;;;;;;6331738;28;20290;-70
2023/10/10 09:43:23;;;;;;;3.33;1.25;;;;;;;;;;6331009;28;20325;-70
2023/10/10 09:46:36;;;;;;;1.23;1.15;;;;;;;;;;6331741;28;20313;-69
2023/10/10 09:49:43;;;;;;;1.35;1.23;;;;;;;;;;6331144;28;20325;-71
2023/10/10 09:52:53;;;;;;;1.40;1.40;;;;;;;;;;6331022;28;20293;-71
2023/10/10 09:56:01;;;;;;;3.80;1.17;;;;;;;;;;6331457;28;20290;-72
2023/10/10 09:59:07;;;;;;;1.30;1.30;;;;;;;;;;6305811;28;20298;-71
2023/10/10 10:02:16;;;;;;;1.45;0.98;;;;;;;;;;6306205;28;20306;-71
2023/10/10 10:05:28;;;;;;;1.42;1.38;;;;;;;;;;6305095;28;20290;-70
2023/10/10 10:08:46;;;;;;;2.47;1.50;;;;;;;;;;6305533;28;20302;-70
2023/10/10 10:12:08;;;;;;;1.40;1.20;;;;;;;;;;6306091;28;20306;-70
2023/10/10 10:15:22;;;;;;;1.00;1.00;;;;;;;;;;6303784;28;20479;-71
2023/10/10 10:18:29;;;;;;;0.93;0.93;;;;;;;;;;6305483;28;20298;-73
2023/10/10 10:21:51;;;;;;;1.13;1.13;;;;;;;;;;6305904;28;20294;-71
2023/10/10 10:25:22;;;;;;;2.45;1.13;;;;;;;;;;6319862;28;20300;-71
2023/10/10 10:28:28;;;;;;;1.67;1.20;;;;;;;;;;6305680;28;20467;-70
2023/10/10 10:31:36;;;;;;;1.10;1.05;;;;;;;;;;6310573;28;20298;-71
2023/10/10 10:34:45;;;;;;;2.92;0.90;;;;;;;;;;6310484;28;20294;-69
2023/10/10 10:37:56;;;;;;;2.47;2.28;;;;;;;;;;6310277;28;20298;-69
2023/10/10 10:41:07;;;;;;;1.70;1.60;;;;;;;;;;6310765;28;20286;-70
2023/10/10 10:44:13;;;;;;;1.40;1.35;;;;;;;;;;6309734;27;20295;-71
2023/10/10 10:47:48;;;;;;;1.20;1.20;;;;;;;;;;6310094;28;20318;-75
2023/10/10 10:50:58;;;;;;;1.65;1.50;;;;;;;;;;6310417;28;20299;-70
2023/10/10 10:54:07;;;;;;;2.17;1.38;;;;;;;;;;6309847;28;20315;-70
2023/10/10 10:57:27;;;;;;;2.55;1.13;;;;;;;;;;6319553;28;20305;-69
2023/10/10 11:01:00;;;;;;;1.50;1.50;;;;;;;;;;6334341;28;20285;-70
2023/10/10 11:04:05;;;;;;;2.50;1.25;;;;;;;;;;6335264;28;20563;-69
2023/10/10 11:07:15;;;;;;;1.00;1.00;;;;;;;;;;6335420;28;20293;-70
2023/10/10 11:10:36;;;;;;;1.17;1.17;;;;;;;;;;6334113;28;20481;-69
2023/10/10 11:13:42;;;;;;;1.30;1.30;;;;;;;;;;6332468;27;20313;-69
2023/10/10 11:16:46;;;;;;;1.10;1.10;;;;;;;;;;6334848;28;20577;-70
2023/10/10 11:19:54;;;;;;;1.00;1.00;;;;;;;;;;6334195;27;20582;-68
2023/10/10 11:23:11;;;;;;;1.00;1.00;;;;;;;;;;6334326;28;20362;-69
2023/10/10 11:26:15;;;;;;;1.75;1.20;;;;;;;;;;6334998;28;20297;-71
2023/10/10 11:29:27;;;;;;;1.02;1.02;;;;;;;;;;6334076;28;20305;-71
2023/10/10 11:32:45;;;;;;;2.50;1.20;;;;;;;;;;6333741;28;20298;-70
2023/10/10 11:36:01;;;;;;;1.20;1.15;;;;;;;;;;6334739;28;20294;-69
2023/10/10 11:39:17;;;;;;;1.55;1.50;;;;;;;;;;6334277;28;20291;-69
2023/10/10 11:42:26;;;;;;;3.80;1.50;;;;;;;;;;6333372;28;20306;-70
2023/10/10 11:45:38;;;;;;;1.63;1.48;;;;;;;;;;6334391;28;20329;-69
2023/10/10 11:48:43;;;;;;;1.17;1.17;;;;;;;;;;6334195;28;20293;-70
2023/10/10 11:51:47;;;;;;;1.20;1.10;;;;;;;;;;6334074;28;20373;-69
2023/10/10 11:54:54;;;;;;;3.22;1.10;;;;;;;;;;6332797;28;20297;-70
2023/10/10 11:57:58;;;;;;;1.63;1.30;;;;;;;;;;6333685;28;20625;-71
2023/10/10 12:01:05;;;;;;;1.10;1.10;;;;;;;;;;6334134;28;20246;-69
2023/10/10 12:04:30;;;;;;;2.20;1.30;;;;;;;;;;6333445;28;20290;-70
2023/10/10 12:07:40;;;;;;;1.20;1.20;;;;;;;;;;6333387;28;20301;-69
2023/10/10 12:10:47;;;;;;;1.63;1.52;;;;;;;;;;6333832;28;20297;-71
2023/10/10 12:13:52;;;;;;;1.15;1.15;;;;;;;;;;6331354;28;20289;-69
2023/10/10 12:17:05;;;;;;;1.20;1.20;;;;;;;;;;6333943;28;20289;-70
2023/10/10 12:20:10;;;;;;;1.20;1.20;;;;;;;;;;6333040;28;20293;-69
2023/10/10 12:23:14;;;;;;;1.40;1.30;;;;;;;;;;6333137;28;20314;-71
2023/10/10 12:26:23;;;;;;;1.52;1.48;;;;;;;;;;6334446;28;20325;-69
2023/10/10 12:29:30;;;;;;;1.67;1.55;;;;;;;;;;6332758;28;20554;-70
2023/10/10 12:32:35;;;;;;;2.20;1.38;;;;;;;;;;6332781;28;20377;-68
2023/10/10 12:35:42;;;;;;;1.17;1.17;;;;;;;;;;6333010;28;20314;-69
2023/10/10 12:38:48;;;;;;;1.40;1.40;;;;;;;;;;6332798;28;20294;-69
2023/10/10 12:41:53;;;;;;;1.52;1.42;;;;;;;;;;6333424;28;20294;-68
2023/10/10 12:45:01;;;;;;;1.73;1.15;;;;;;;;;;6332635;28;20298;-69
2023/10/10 12:48:13;;;;;;;1.45;1.30;;;;;;;;;;6332955;28;20476;-69
2023/10/10 12:51:21;;;;;;;3.38;2.00;;;;;;;;;;6333283;28;20294;-72
2023/10/10 12:54:34;;;;;;;1.48;1.42;;;;;;;;;;6332282;28;20626;-71
2023/10/10 12:57:39;;;;;;;27.60;2.70;;;;;;;;;;6332310;28;20291;-70
2023/10/10 13:00:50;;;;;;;5.40;1.70;;;;;;;;;;6332657;28;20293;-70
2023/10/10 13:03:56;;;;;;;2.08;1.38;;;;;;;;;;6331089;28;20364;-70
2023/10/10 13:07:03;;;;;;;4.00;1.25;;;;;;;;;;6330650;28;20246;-69
2023/10/10 13:10:11;;;;;;;4.22;1.23;;;;;;;;;;6312502;28;20290;-69
2023/10/10 13:13:26;;;;;;;3.85;1.33;;;;;;;;;;6329932;28;20378;-71
2023/10/10 13:16:52;;;;;;;4.78;1.60;;;;;;;;;;6332428;28;20366;-70
2023/10/10 13:19:58;;;;;;;1.30;1.30;;;;;;;;;;6331340;28;20365;-70
2023/10/10 13:23:06;;;;;;;13.40;2.58;;;;;;;;;;6331552;28;20325;-71
2023/10/10 13:26:10;;;;;;;1.42;1.40;;;;;;;;;;6331915;28;20298;-72
2023/10/10 13:29:16;;;;;;;10.55;1.63;;;;;;;;;;6331544;28;20305;-72
2023/10/10 13:32:21;;;;;;;1.52;1.45;;;;;;;;;;6331226;28;20289;-70
2023/10/10 13:35:28;;;;;;;1.40;1.30;;;;;;;;;;6331658;28;20377;-71
2023/10/10 13:38:33;;;;;;;1.40;1.30;;;;;;;;;;6319241;28;20302;-71
2023/10/10 13:41:37;;;;;;;1.20;1.20;;;;;;;;;;6306812;28;20537;-71
2023/10/10 13:44:42;;;;;;;2.40;1.30;;;;;;;;;;6305978;28;20290;-74
2023/10/10 13:47:48;;;;;;;1.63;1.50;;;;;;;;;;6306126;28;20302;-72
2023/10/10 13:50:56;;;;;;;1.90;1.20;;;;;;;;;;6306244;28;20652;-71
2023/10/10 13:54:01;;;;;;;1.85;1.38;;;;;;;;;;6305890;28;20290;-70
2023/10/10 13:57:06;;;;;;;1.85;1.20;;;;;;;;;;6306712;28;20501;-73
2023/10/10 14:00:28;;;;;;;2.58;1.38;;;;;;;;;;6306099;28;20536;-71
2023/10/10 14:03:35;;;;;;;1.55;1.50;;;;;;;;;;6307519;28;20290;-71
2023/10/10 14:06:47;;;;;;;2.97;1.77;;;;;;;;;;6314692;28;20315;-73
2023/10/10 14:09:51;;;;;;;1.88;1.30;;;;;;;;;;6316972;28;20293;-72
2023/10/10 14:13:19;;;;;;;1.75;1.73;;;;;;;;;;6337286;27;20439;-71
2023/10/10 14:16:24;;;;;;;2.65;1.30;;;;;;;;;;6339800;28;20309;-70
2023/10/10 14:19:29;;;;;;;1.30;1.30;;;;;;;;;;6339093;27;20306;-72
2023/10/10 14:22:38;;;;;;;2.92;1.70;;;;;;;;;;6339528;28;20293;-70
2023/10/10 14:26:12;;;;;;;1.40;1.30;;;;;;;;;;6340289;28;20313;-69
2023/10/10 14:29:16;;;;;;;1.60;1.60;;;;;;;;;;6339460;27;20301;-70
2023/10/10 14:32:21;;;;;;;3.55;1.80;;;;;;;;;;6338882;28;20297;-69
2023/10/10 14:35:41;;;;;;;2.75;1.65;;;;;;;;;;6339686;28;20297;-71
2023/10/10 14:38:49;;;;;;;4.07;1.70;;;;;;;;;;6338740;28;20439;-70
2023/10/10 14:41:54;;;;;;;2.85;2.00;;;;;;;;;;6339166;28;20285;-70
2023/10/10 14:44:58;;;;;;;4.28;1.70;;;;;;;;;;6338881;28;20297;-70
2023/10/10 14:48:06;;;;;;;4.57;1.90;;;;;;;;;;6338981;28;20294;-71
2023/10/10 14:51:17;;;;;;;1.90;1.90;;;;;;;;;;6339041;28;20285;-70
2023/10/10 14:54:22;;;;;;;2.15;1.67;;;;;;;;;;6338787;28;20309;-70
2023/10/10 14:57:29;;;;;;;3.38;1.83;;;;;;;;;;6339045;28;20633;-71
2023/10/10 15:00:39;;;;;;;1.73;1.73;;;;;;;;;;6339015;28;20329;-69
2023/10/10 15:03:47;;;;;;;3.17;1.85;;;;;;;;;;6338367;28;20321;-68
2023/10/10 15:06:54;;;;;;;5.03;1.60;;;;;;;;;;6338061;28;20270;-69
2023/10/10 15:09:59;;;;;;;4.05;2.10;;;;;;;;;;6338056;28;20613;-70
2023/10/10 15:13:03;;;;;;;3.33;1.80;;;;;;;;;;6335244;27;20277;-72
2023/10/10 15:16:09;;;;;;;1.90;1.77;;;;;;;;;;6335200;28;20409;-68
2023/10/10 15:19:13;;;;;;;3.25;1.42;;;;;;;;;;6334276;28;20293;-70
2023/10/10 15:22:18;;;;;;;4.53;1.67;;;;;;;;;;6334325;27;20305;-71
2023/10/10 15:25:23;;;;;;;1.70;1.60;;;;;;;;;;6334205;28;20301;-69
2023/10/10 15:28:28;;;;;;;2.92;1.30;;;;;;;;;;6334127;27;20613;-71
2023/10/10 15:31:33;;;;;;;4.30;1.33;;;;;;;;;;6334477;28;20321;-72
2023/10/10 15:34:37;;;;;;;1.63;1.55;;;;;;;;;;6334053;28;20297;-70
2023/10/10 15:37:44;;;;;;;2.45;1.48;;;;;;;;;;6333759;28;20297;-70
2023/10/10 15:40:52;;;;;;;3.67;1.60;;;;;;;;;;6334350;28;20293;-71
2023/10/10 15:43:56;;;;;;;4.05;1.55;;;;;;;;;;6333426;28;20286;-70
2023/10/10 15:47:03;;;;;;;8.23;1.75;;;;;;;;;;6334186;28;20285;-69
2023/10/10 15:50:08;;;;;;;3.45;1.83;;;;;;;;;;6333185;28;20468;-70
2023/10/10 15:53:12;;;;;;;4.45;1.55;;;;;;;;;;6331901;28;20473;-70
2023/10/10 15:56:18;;;;;;;5.30;1.48;;;;;;;;;;6334286;28;20293;-72
2023/10/10 15:59:24;;;;;;;4.78;1.50;;;;;;;;;;6308176;28;20302;-70
2023/10/10 16:02:28;;;;;;;2.03;1.40;;;;;;;;;;6308208;28;20305;-70
2023/10/10 16:05:32;;;;;;;2.90;1.40;;;;;;;;;;6308895;28;20366;-71
2023/10/10 16:08:37;;;;;;;2.45;1.60;;;;;;;;;;6308083;28;20299;-70
2023/10/10 16:11:44;;;;;;;6.85;2.20;;;;;;;;;;6309109;28;20502;-72
2023/10/10 16:14:48;;;;;;;1.80;1.70;;;;;;;;;;6306081;28;20302;-73
2023/10/10 16:17:52;;;;;;;2.13;1.92;;;;;;;;;;6308402;28;20298;-72
2023/10/10 16:20:56;;;;;;;1.85;1.75;;;;;;;;;;6308691;28;20286;-71
2023/10/10 16:24:04;;;;;;;1.85;1.75;;;;;;;;;;6308107;28;20298;-70
2023/10/10 16:27:09;;;;;;;4.60;2.78;;;;;;;;;;6307207;28;20290;-71
2023/10/10 16:30:16;;;;;;;2.65;2.33;;;;;;;;;;6308023;28;20445;-71
2023/10/10 16:33:23;;;;;;;2.20;2.00;;;;;;;;;;6307725;28;20309;-71
2023/10/10 16:36:28;;;;;;;6.72;1.60;;;;;;;;;;6307997;28;20313;-70
2023/10/10 16:39:33;;;;;;;1.45;1.45;;;;;;;;;;6307402;28;20305;-72
2023/10/10 16:42:38;;;;;;;1.85;1.70;;;;;;;;;;6307936;28;20286;-70
2023/10/10 16:45:42;;;;;;;1.88;1.83;;;;;;;;;;6307527;28;20317;-71
2023/10/10 16:48:47;;;;;;;1.90;1.80;;;;;;;;;;6307314;28;20389;-71
2023/10/10 16:51:54;;;;;;;4.15;1.83;;;;;;;;;;6305889;28;20274;-70
2023/10/10 16:54:57;;;;;;;7.38;2.25;;;;;;;;;;6306905;28;20476;-72
2023/10/10 16:58:03;;;;;;;4.35;1.90;;;;;;;;;;6321241;28;20289;-71
2023/10/10 17:01:09;;;;;;;3.03;1.80;;;;;;;;;;6332769;28;20254;-71
2023/10/10 17:04:13;;;;;;;1.92;1.83;;;;;;;;;;6331952;28;20307;-72
2023/10/10 17:07:20;;;;;;;2.05;1.95;;;;;;;;;;6331957;28;20313;-71
2023/10/10 17:10:24;;;;;;;1.80;1.77;;;;;;;;;;6332535;28;20293;-70
2023/10/10 17:13:30;;;;;;;3.08;1.77;;;;;;;;;;6329753;28;20323;-72
2023/10/10 17:16:34;;;;;;;1.80;1.70;;;;;;;;;;6332370;28;20314;-72
2023/10/10 17:19:38;;;;;;;1.80;1.75;;;;;;;;;;6331612;28;20305;-71
2023/10/10 17:22:41;;;;;;;1.77;1.60;;;;;;;;;;6330558;28;20595;-72
2023/10/10 17:25:45;;;;;;;1.90;1.80;;;;;;;;;;6332824;28;20301;-70
2023/10/10 17:28:52;;;;;;;1.98;1.83;;;;;;;;;;6331173;28;20281;-71
2023/10/10 17:31:55;;;;;;;3.65;1.77;;;;;;;;;;6332085;27;20317;-70
2023/10/10 17:35:02;;;;;;;1.83;1.77;;;;;;;;;;6330751;28;20468;-70
2023/10/10 17:38:06;;;;;;;2.13;2.00;;;;;;;;;;6329686;27;20298;-71
2023/10/10 17:41:12;;;;;;;2.25;2.05;;;;;;;;;;6306782;28;20301;-69
2023/10/10 17:44:17;;;;;;;4.18;1.98;;;;;;;;;;6305752;28;20307;-71
2023/10/10 17:47:22;;;;;;;2.33;1.92;;;;;;;;;;6305655;28;20314;-69
2023/10/10 17:50:26;;;;;;;2.17;1.98;;;;;;;;;;6306156;28;20299;-70
2023/10/10 17:53:31;;;;;;;4.63;2.47;;;;;;;;;;6305741;28;20303;-71
2023/10/10 17:56:34;;;;;;;3.28;2.15;;;;;;;;;;6306514;28;20302;-72
2023/10/10 17:59:40;;;;;;;2.40;2.20;;;;;;;;;;6306113;28;20293;-71
2023/10/10 18:02:48;;;;;;;2.85;2.17;;;;;;;;;;6304298;28;20345;-70
2023/10/10 18:05:54;;;;;;;4.47;2.30;;;;;;;;;;6306329;28;20298;-71
2023/10/10 18:09:00;;;;;;;6.82;3.05;;;;;;;;;;6305835;28;20298;-70
2023/10/10 18:12:05;;;;;;;6.97;2.80;;;;;;;;;;6328201;28;20325;-70
2023/10/10 18:15:11;;;;;;;3.75;2.42;;;;;;;;;;6328977;28;20392;-71
2023/10/10 18:18:16;;;;;;;6.13;2.63;;;;;;;;;;6331056;28;20313;-71
2023/10/10 18:21:20;;;;;;;3.78;2.80;;;;;;;;;;6331942;28;20307;-70
2023/10/10 18:24:27;;;;;;;2.53;2.42;;;;;;;;;;6330898;28;20301;-71
2023/10/10 18:27:31;;;;;;;3.20;2.53;;;;;;;;;;6330549;28;20614;-71
2023/10/10 18:30:37;;;;;;;4.47;2.50;;;;;;;;;;6332080;28;20293;-69
2023/10/10 18:33:42;;;;;;;3.55;2.60;;;;;;;;;;6330603;28;20297;-70
2023/10/10 18:36:47;;;;;;;5.90;2.70;;;;;;;;;;6330802;28;20306;-70
2023/10/10 18:39:52;;;;;;;2.78;2.65;;;;;;;;;;6330067;28;20297;-72
2023/10/10 18:42:56;;;;;;;3.65;2.70;;;;;;;;;;6330704;28;20313;-71
2023/10/10 18:46:04;;;;;;;2.50;2.30;;;;;;;;;;6330995;28;20274;-69
2023/10/10 18:49:09;;;;;;;2.58;2.47;;;;;;;;;;6330455;28;20400;-70
2023/10/10 18:52:13;;;;;;;2.63;2.42;;;;;;;;;;6334499;28;20298;-72
2023/10/10 18:55:18;;;;;;;2.70;2.60;;;;;;;;;;6334976;28;20336;-71
2023/10/10 18:58:22;;;;;;;5.72;2.65;;;;;;;;;;6335084;28;20306;-69
2023/10/10 19:01:27;;;;;;;5.00;2.60;;;;;;;;;;6335429;28;20590;-68
2023/10/10 19:04:31;;;;;;;2.60;2.40;;;;;;;;;;6335253;28;20302;-73
2023/10/10 19:07:36;;;;;;;3.03;2.83;;;;;;;;;;6335084;28;20321;-71
2023/10/10 19:10:40;;;;;;;2.47;2.28;;;;;;;;;;6335693;28;20408;-70
2023/10/10 19:13:48;;;;;;;3.42;2.50;;;;;;;;;;6333011;28;20293;-72
2023/10/10 19:16:55;;;;;;;2.72;2.42;;;;;;;;;;6335899;28;20294;-73
2023/10/10 19:19:59;;;;;;;4.25;2.40;;;;;;;;;;6334675;28;20309;-71
2023/10/10 19:23:05;;;;;;;16.20;2.50;;;;;;;;;;6334822;28;20293;-71
2023/10/10 19:26:12;;;;;;;2.08;1.98;;;;;;;;;;6334514;28;20301;-70
2023/10/10 19:29:19;;;;;;;2.25;2.00;;;;;;;;;;6333544;28;20570;-72
2023/10/10 19:32:25;;;;;;;1.98;1.80;;;;;;;;;;6334436;28;20293;-72
2023/10/10 19:35:28;;;;;;;2.70;1.75;;;;;;;;;;6335193;28;20309;-71
2023/10/10 19:38:34;;;;;;;1.98;1.80;;;;;;;;;;6334523;28;20476;-70
2023/10/10 19:41:38;;;;;;;2.08;1.60;;;;;;;;;;6335281;28;20301;-72
2023/10/10 19:44:42;;;;;;;1.75;1.67;;;;;;;;;;6334282;28;20294;-71
2023/10/10 19:47:49;;;;;;;2.00;1.90;;;;;;;;;;6334117;28;20301;-72
2023/10/10 19:50:56;;;;;;;2.92;1.58;;;;;;;;;;6334368;28;20389;-71
2023/10/10 19:54:00;;;;;;;1.40;1.40;;;;;;;;;;6334041;28;20497;-72
2023/10/10 19:57:04;;;;;;;3.20;1.90;;;;;;;;;;6334328;28;20290;-70
2023/10/10 20:00:14;;;;;;;1.83;1.73;;;;;;;;;;6333798;28;20321;-74
2023/10/10 20:03:26;;;;;;;1.92;1.83;;;;;;;;;;6331547;28;20293;-71
2023/10/10 20:06:30;;;;;;;2.00;2.00;;;;;;;;;;6334124;28;20298;-70
2023/10/10 20:09:35;;;;;;;1.70;1.60;;;;;;;;;;6333714;28;20293;-70
2023/10/10 20:12:39;;;;;;;1.70;1.60;;;;;;;;;;6333229;28;20293;-71
2023/10/10 20:15:44;;;;;;;2.13;1.70;;;;;;;;;;6330423;28;20700;-72
2023/10/10 20:18:53;;;;;;;2.85;2.38;;;;;;;;;;6333353;28;20313;-72
2023/10/10 20:21:58;;;;;;;1.83;1.73;;;;;;;;;;6333078;28;20265;-73
2023/10/10 20:25:03;;;;;;;1.73;1.73;;;;;;;;;;6333242;28;20309;-70
2023/10/10 20:28:08;;;;;;;4.68;1.90;;;;;;;;;;6332889;27;20298;-71
2023/10/10 20:31:13;;;;;;;2.13;1.98;;;;;;;;;;6333390;28;20310;-72